sensor_id;sensor_type;location;lat;lon;timestamp;pressure;altitude;pressure_sealevel;temperature;humidity
49723;BME280;43484;43.608;1.458;2023-12-14T00:01:31;99250.47;;;8.59;100.00
49723;BME280;43484;43.608;1.458;2023-12-14T00:03:58;99248.66;;;8.55;100.00
49723;BME280;43484;43.608;1.458;2023-12-14T00:06:25;99255.66;;;8.62;100.00
49723;BME280;43484;43.608;1.458;2023-12-14T00:08:52;99246.28;;;8.61;100.00
49723;BME280;43484;43.608;1.458;2023-12-14T00:11:18;99246.16;;;8.57;100.00
49723;BME280;43484;43.608;1.458;2023-12-14T00:13:45;99247.00;;;8.57;100.00
49723;BME280;43484;43.608;1.458;2023-12-14T00:16:11;99241.13;;;8.60;100.00
49723;BME280;43484;43.608;1.458;2023-12-14T00:18:38;99255.56;;;8.59;100.00
49723;BME280;43484;43.608;1.458;2023-12-14T00:21:05;99263.38;;;8.64;100.00
49723;BME280;43484;43.608;1.458;2023-12-14T00:23:33;99256.31;;;8.55;100.00
49723;BME280;43484;43.608;1.458;2023-12-14T00:26:00;99261.44;;;8.55;100.00
49723;BME280;43484;43.608;1.458;2023-12-14T00:28:27;99252.91;;;8.55;100.00
49723;BME280;43484;43.608;1.458;2023-12-14T00:30:59;99257.97;;;8.53;100.00
49723;BME280;43484;43.608;1.458;2023-12-14T00:33:25;99264.78;;;8.54;100.00
49723;BME280;43484;43.608;1.458;2023-12-14T00:35:52;99255.41;;;8.53;100.00
49723;BME280;43484;43.608;1.458;2023-12-14T00:38:19;99261.28;;;8.51;100.00
49723;BME280;43484;43.608;1.458;2023-12-14T00:40:45;99253.59;;;8.49;100.00
49723;BME280;43484;43.608;1.458;2023-12-14T00:43:12;99263.00;;;8.50;100.00
49723;BME280;43484;43.608;1.458;2023-12-14T00:45:39;99268.91;;;8.49;100.00
49723;BME280;43484;43.608;1.458;2023-12-14T00:48:08;99267.06;;;8.44;100.00
49723;BME280;43484;43.608;1.458;2023-12-14T00:50:35;99268.81;;;8.46;100.00
49723;BME280;43484;43.608;1.458;2023-12-14T00:53:02;99268.84;;;8.48;100.00
49723;BME280;43484;43.608;1.458;2023-12-14T00:55:28;99265.38;;;8.46;100.00
49723;BME280;43484;43.608;1.458;2023-12-14T00:57:55;99259.59;;;8.51;100.00
49723;BME280;43484;43.608;1.458;2023-12-14T01:00:21;99267.13;;;8.47;100.00
49723;BME280;43484;43.608;1.458;2023-12-14T01:02:48;99263.78;;;8.49;100.00
49723;BME280;43484;43.608;1.458;2023-12-14T01:05:15;99273.19;;;8.50;100.00
49723;BME280;43484;43.608;1.458;2023-12-14T01:07:42;99279.97;;;8.50;100.00
49723;BME280;43484;43.608;1.458;2023-12-14T01:10:09;99279.25;;;8.54;100.00
49723;BME280;43484;43.608;1.458;2023-12-14T01:12:35;99279.75;;;8.42;100.00
49723;BME280;43484;43.608;1.458;2023-12-14T01:15:02;99292.38;;;8.38;100.00
49723;BME280;43484;43.608;1.458;2023-12-14T01:17:29;99292.25;;;8.33;100.00
49723;BME280;43484;43.608;1.458;2023-12-14T01:19:56;99299.16;;;8.37;100.00
49723;BME280;43484;43.608;1.458;2023-12-14T01:22:22;99294.84;;;8.35;100.00
49723;BME280;43484;43.608;1.458;2023-12-14T01:24:49;99286.38;;;8.36;100.00
49723;BME280;43484;43.608;1.458;2023-12-14T01:27:16;99299.16;;;8.37;100.00
49723;BME280;43484;43.608;1.458;2023-12-14T01:29:42;99284.53;;;8.30;100.00
49723;BME280;43484;43.608;1.458;2023-12-14T01:32:09;99302.34;;;8.29;100.00
49723;BME280;43484;43.608;1.458;2023-12-14T01:34:36;99292.22;;;8.32;100.00
49723;BME280;43484;43.608;1.458;2023-12-14T01:37:03;99286.16;;;8.28;100.00
49723;BME280;43484;43.608;1.458;2023-12-14T01:39:30;99292.31;;;8.35;100.00
49723;BME280;43484;43.608;1.458;2023-12-14T01:41:56;99289.47;;;8.26;100.00
49723;BME280;43484;43.608;1.458;2023-12-14T01:44:23;99285.88;;;8.21;100.00
49723;BME280;43484;43.608;1.458;2023-12-14T01:46:50;99283.38;;;8.22;100.00
49723;BME280;43484;43.608;1.458;2023-12-14T01:49:17;99286.66;;;8.18;100.00
49723;BME280;43484;43.608;1.458;2023-12-14T01:51:44;99295.19;;;8.19;100.00
49723;BME280;43484;43.608;1.458;2023-12-14T01:54:10;99302.75;;;8.16;100.00
49723;BME280;43484;43.608;1.458;2023-12-14T01:56:37;99312.81;;;8.11;100.00
49723;BME280;43484;43.608;1.458;2023-12-14T01:59:04;99313.53;;;8.07;100.00
49723;BME280;43484;43.608;1.458;2023-12-14T02:01:44;99321.13;;;8.06;100.00
49723;BME280;43484;43.608;1.458;2023-12-14T02:04:12;99338.84;;;8.01;100.00
49723;BME280;43484;43.608;1.458;2023-12-14T02:06:39;99344.78;;;8.00;100.00
49723;BME280;43484;43.608;1.458;2023-12-14T02:09:06;99354.09;;;8.00;100.00
49723;BME280;43484;43.608;1.458;2023-12-14T02:11:33;99355.69;;;7.96;100.00
49723;BME280;43484;43.608;1.458;2023-12-14T02:14:04;99361.72;;;7.98;100.00
49723;BME280;43484;43.608;1.458;2023-12-14T02:16:31;99374.59;;;8.03;100.00
49723;BME280;43484;43.608;1.458;2023-12-14T02:18:58;99372.78;;;7.99;100.00
49723;BME280;43484;43.608;1.458;2023-12-14T02:21:25;99390.88;;;8.06;100.00
49723;BME280;43484;43.608;1.458;2023-12-14T02:23:52;99387.25;;;8.00;100.00
49723;BME280;43484;43.608;1.458;2023-12-14T02:26:18;99408.63;;;8.03;100.00
49723;BME280;43484;43.608;1.458;2023-12-14T02:28:45;99402.81;;;8.07;100.00
49723;BME280;43484;43.608;1.458;2023-12-14T02:31:12;99405.25;;;8.04;100.00
49723;BME280;43484;43.608;1.458;2023-12-14T02:33:39;99424.91;;;8.07;100.00
49723;BME280;43484;43.608;1.458;2023-12-14T02:36:06;99438.38;;;8.03;100.00
49723;BME280;43484;43.608;1.458;2023-12-14T02:38:32;99445.97;;;8.01;100.00
49723;BME280;43484;43.608;1.458;2023-12-14T02:41:00;99447.13;;;8.11;100.00
49723;BME280;43484;43.608;1.458;2023-12-14T02:43:26;99453.00;;;8.08;100.00
49723;BME280;43484;43.608;1.458;2023-12-14T02:45:53;99459.84;;;8.09;100.00
49723;BME280;43484;43.608;1.458;2023-12-14T02:48:21;99477.56;;;8.05;100.00
49723;BME280;43484;43.608;1.458;2023-12-14T02:50:48;99482.66;;;8.05;100.00
49723;BME280;43484;43.608;1.458;2023-12-14T02:53:15;99496.25;;;8.04;100.00
49723;BME280;43484;43.608;1.458;2023-12-14T02:55:42;99509.03;;;8.05;100.00
49723;BME280;43484;43.608;1.458;2023-12-14T02:58:09;99503.06;;;8.05;100.00
49723;BME280;43484;43.608;1.458;2023-12-14T03:00:36;99501.25;;;8.02;100.00
49723;BME280;43484;43.608;1.458;2023-12-14T03:03:02;99504.72;;;8.04;100.00
49723;BME280;43484;43.608;1.458;2023-12-14T03:05:29;99501.25;;;8.02;100.00
49723;BME280;43484;43.608;1.458;2023-12-14T03:07:56;99507.50;;;8.10;100.00
49723;BME280;43484;43.608;1.458;2023-12-14T03:10:22;99503.56;;;7.95;100.00
49723;BME280;43484;43.608;1.458;2023-12-14T03:12:49;99514.78;;;8.00;100.00
49723;BME280;43484;43.608;1.458;2023-12-14T03:15:17;99513.13;;;8.00;100.00
49723;BME280;43484;43.608;1.458;2023-12-14T03:17:44;99526.53;;;7.95;100.00
49723;BME280;43484;43.608;1.458;2023-12-14T03:20:11;99530.69;;;7.93;100.00
49723;BME280;43484;43.608;1.458;2023-12-14T03:22:40;99537.59;;;7.95;100.00
49723;BME280;43484;43.608;1.458;2023-12-14T03:25:09;99556.53;;;8.02;100.00
49723;BME280;43484;43.608;1.458;2023-12-14T03:27:36;99556.47;;;8.00;100.00
49723;BME280;43484;43.608;1.458;2023-12-14T03:30:03;99554.63;;;7.96;100.00
49723;BME280;43484;43.608;1.458;2023-12-14T03:32:34;99572.31;;;7.92;100.00
49723;BME280;43484;43.608;1.458;2023-12-14T03:35:01;99586.66;;;7.88;100.00
49723;BME280;43484;43.608;1.458;2023-12-14T03:37:28;99580.34;;;7.79;100.00
49723;BME280;43484;43.608;1.458;2023-12-14T03:39:55;99590.75;;;7.85;100.00
49723;BME280;43484;43.608;1.458;2023-12-14T03:42:22;99586.66;;;7.88;100.00
49723;BME280;43484;43.608;1.458;2023-12-14T03:44:49;99597.94;;;7.95;100.00
49723;BME280;43484;43.608;1.458;2023-12-14T03:47:15;99603.63;;;7.88;100.00
49723;BME280;43484;43.608;1.458;2023-12-14T03:49:42;99607.84;;;7.87;100.00
49723;BME280;43484;43.608;1.458;2023-12-14T03:52:09;99608.72;;;7.88;100.00
49723;BME280;43484;43.608;1.458;2023-12-14T03:54:36;99611.00;;;7.80;100.00
49723;BME280;43484;43.608;1.458;2023-12-14T03:57:02;99620.38;;;7.81;100.00
49723;BME280;43484;43.608;1.458;2023-12-14T03:59:29;99618.13;;;7.89;100.00
49723;BME280;43484;43.608;1.458;2023-12-14T04:01:56;99614.66;;;7.87;100.00
49723;BME280;43484;43.608;1.458;2023-12-14T04:04:22;99618.91;;;7.88;100.00
49723;BME280;43484;43.608;1.458;2023-12-14T04:06:49;99623.75;;;7.80;100.00
49723;BME280;43484;43.608;1.458;2023-12-14T04:09:17;99627.28;;;7.84;100.00
49723;BME280;43484;43.608;1.458;2023-12-14T04:11:44;99627.97;;;7.80;100.00
49723;BME280;43484;43.608;1.458;2023-12-14T04:14:10;99640.09;;;7.85;100.00
49723;BME280;43484;43.608;1.458;2023-12-14T04:16:38;99640.88;;;7.84;100.00
49723;BME280;43484;43.608;1.458;2023-12-14T04:19:04;99657.63;;;7.78;100.00
49723;BME280;43484;43.608;1.458;2023-12-14T04:21:36;99658.09;;;7.90;100.00
49723;BME280;43484;43.608;1.458;2023-12-14T04:24:03;99656.25;;;7.86;100.00
49723;BME280;43484;43.608;1.458;2023-12-14T04:26:30;99661.84;;;7.77;100.00
49723;BME280;43484;43.608;1.458;2023-12-14T04:28:57;99659.31;;;7.77;100.00
49723;BME280;43484;43.608;1.458;2023-12-14T04:31:24;99652.94;;;7.88;100.00
49723;BME280;43484;43.608;1.458;2023-12-14T04:33:51;99667.16;;;7.82;100.00
49723;BME280;43484;43.608;1.458;2023-12-14T04:36:18;99671.16;;;7.75;100.00
49723;BME280;43484;43.608;1.458;2023-12-14T04:38:44;99666.06;;;7.75;100.00
49723;BME280;43484;43.608;1.458;2023-12-14T04:41:13;99683.84;;;7.74;100.00
49723;BME280;43484;43.608;1.458;2023-12-14T04:43:40;99687.81;;;7.67;100.00
49723;BME280;43484;43.608;1.458;2023-12-14T04:46:07;99694.78;;;7.71;100.00
49723;BME280;43484;43.608;1.458;2023-12-14T04:48:33;99704.16;;;7.72;100.00
49723;BME280;43484;43.608;1.458;2023-12-14T04:51:00;99707.13;;;7.83;100.00
49723;BME280;43484;43.608;1.458;2023-12-14T04:53:27;99716.28;;;7.78;100.00
49723;BME280;43484;43.608;1.458;2023-12-14T04:55:53;99713.25;;;7.65;100.00
49723;BME280;43484;43.608;1.458;2023-12-14T04:58:20;99728.91;;;7.75;100.00
49723;BME280;43484;43.608;1.458;2023-12-14T05:00:48;99730.69;;;7.77;100.00
49723;BME280;43484;43.608;1.458;2023-12-14T05:03:14;99747.59;;;7.74;100.00
49723;BME280;43484;43.608;1.458;2023-12-14T05:05:41;99743.00;;;7.65;100.00
49723;BME280;43484;43.608;1.458;2023-12-14T05:08:08;99743.13;;;7.68;100.00
49723;BME280;43484;43.608;1.458;2023-12-14T05:10:35;99749.72;;;7.63;100.00
49723;BME280;43484;43.608;1.458;2023-12-14T05:13:02;99758.34;;;7.67;100.00
49723;BME280;43484;43.608;1.458;2023-12-14T05:15:29;99775.09;;;7.60;100.00
49723;BME280;43484;43.608;1.458;2023-12-14T05:17:57;99770.78;;;7.59;100.00
49723;BME280;43484;43.608;1.458;2023-12-14T05:20:24;99767.56;;;7.63;100.00
49723;BME280;43484;43.608;1.458;2023-12-14T05:22:51;99776.81;;;7.61;100.00
49723;BME280;43484;43.608;1.458;2023-12-14T05:25:17;99781.84;;;7.59;100.00
49723;BME280;43484;43.608;1.458;2023-12-14T05:27:44;99787.63;;;7.55;100.00
49723;BME280;43484;43.608;1.458;2023-12-14T05:30:11;99793.72;;;7.59;100.00
49723;BME280;43484;43.608;1.458;2023-12-14T05:32:38;99788.34;;;7.51;100.00
49723;BME280;43484;43.608;1.458;2023-12-14T05:35:06;99805.34;;;7.52;100.00
49723;BME280;43484;43.608;1.458;2023-12-14T05:37:32;99808.28;;;7.41;100.00
49723;BME280;43484;43.608;1.458;2023-12-14T05:39:59;99810.06;;;7.43;100.00
49723;BME280;43484;43.608;1.458;2023-12-14T05:42:26;99816.47;;;7.34;100.00
49723;BME280;43484;43.608;1.458;2023-12-14T05:44:52;99822.63;;;7.39;100.00
49723;BME280;43484;43.608;1.458;2023-12-14T05:47:19;99829.31;;;7.37;100.00
49723;BME280;43484;43.608;1.458;2023-12-14T05:49:46;99835.47;;;7.42;100.00
49723;BME280;43484;43.608;1.458;2023-12-14T05:52:13;99839.84;;;7.44;100.00
49723;BME280;43484;43.608;1.458;2023-12-14T05:54:39;99845.00;;;7.46;100.00
49723;BME280;43484;43.608;1.458;2023-12-14T05:57:06;99856.28;;;7.32;100.00
49723;BME280;43484;43.608;1.458;2023-12-14T05:59:32;99857.28;;;7.35;100.00
49723;BME280;43484;43.608;1.458;2023-12-14T06:02:00;99861.78;;;7.41;100.00
49723;BME280;43484;43.608;1.458;2023-12-14T06:04:27;99865.06;;;7.38;100.00
49723;BME280;43484;43.608;1.458;2023-12-14T06:06:54;99870.66;;;7.30;100.00
49723;BME280;43484;43.608;1.458;2023-12-14T06:09:21;99884.59;;;7.38;100.00
49723;BME280;43484;43.608;1.458;2023-12-14T06:11:51;99886.75;;;7.29;100.00
49723;BME280;43484;43.608;1.458;2023-12-14T06:14:18;99884.13;;;7.27;100.00
49723;BME280;43484;43.608;1.458;2023-12-14T06:16:45;99901.91;;;7.26;100.00
49723;BME280;43484;43.608;1.458;2023-12-14T06:19:12;99900.19;;;7.25;100.00
49723;BME280;43484;43.608;1.458;2023-12-14T06:21:40;99909.75;;;7.30;100.00
49723;BME280;43484;43.608;1.458;2023-12-14T06:24:07;99909.25;;;7.39;100.00
49723;BME280;43484;43.608;1.458;2023-12-14T06:26:34;99929.00;;;7.24;100.00
49723;BME280;43484;43.608;1.458;2023-12-14T06:29:00;99923.94;;;7.25;100.00
49723;BME280;43484;43.608;1.458;2023-12-14T06:31:27;99929.19;;;7.28;100.00
49723;BME280;43484;43.608;1.458;2023-12-14T06:33:54;99943.38;;;7.23;100.00
49723;BME280;43484;43.608;1.458;2023-12-14T06:36:26;99944.41;;;7.27;100.00
49723;BME280;43484;43.608;1.458;2023-12-14T06:38:57;99944.00;;;7.18;100.00
49723;BME280;43484;43.608;1.458;2023-12-14T06:41:25;99951.25;;;7.28;100.00
49723;BME280;43484;43.608;1.458;2023-12-14T06:43:52;99953.31;;;7.17;100.00
49723;BME280;43484;43.608;1.458;2023-12-14T06:46:19;99955.63;;;7.11;100.00
49723;BME280;43484;43.608;1.458;2023-12-14T06:48:47;99963.84;;;7.06;100.00
49723;BME280;43484;43.608;1.458;2023-12-14T06:51:14;99949.56;;;7.09;100.00
49723;BME280;43484;43.608;1.458;2023-12-14T06:53:42;99964.09;;;7.12;100.00
49723;BME280;43484;43.608;1.458;2023-12-14T06:56:09;99965.81;;;7.11;100.00
49723;BME280;43484;43.608;1.458;2023-12-14T06:58:38;99971.81;;;7.13;100.00
49723;BME280;43484;43.608;1.458;2023-12-14T07:01:05;99975.91;;;7.10;100.00
49723;BME280;43484;43.608;1.458;2023-12-14T07:03:32;99977.13;;;7.18;100.00
49723;BME280;43484;43.608;1.458;2023-12-14T07:05:59;99983.34;;;7.05;100.00
49723;BME280;43484;43.608;1.458;2023-12-14T07:08:26;99990.31;;;7.09;100.00
49723;BME280;43484;43.608;1.458;2023-12-14T07:10:53;100001.22;;;7.07;100.00
49723;BME280;43484;43.608;1.458;2023-12-14T07:13:19;100008.97;;;7.27;100.00
49723;BME280;43484;43.608;1.458;2023-12-14T07:15:47;100010.38;;;7.21;100.00
49723;BME280;43484;43.608;1.458;2023-12-14T07:18:13;100024.38;;;7.11;100.00
49723;BME280;43484;43.608;1.458;2023-12-14T07:20:41;100024.09;;;7.05;100.00
49723;BME280;43484;43.608;1.458;2023-12-14T07:23:07;100036.25;;;7.11;100.00
49723;BME280;43484;43.608;1.458;2023-12-14T07:25:34;100043.69;;;7.06;100.00
49723;BME280;43484;43.608;1.458;2023-12-14T07:28:01;100048.47;;;7.00;100.00
49723;BME280;43484;43.608;1.458;2023-12-14T07:30:28;100057.25;;;7.07;100.00
49723;BME280;43484;43.608;1.458;2023-12-14T07:32:55;100061.34;;;7.03;100.00
49723;BME280;43484;43.608;1.458;2023-12-14T07:35:22;100059.75;;;7.05;100.00
49723;BME280;43484;43.608;1.458;2023-12-14T07:37:49;100069.78;;;7.02;100.00
49723;BME280;43484;43.608;1.458;2023-12-14T07:40:16;100077.38;;;7.01;100.00
49723;BME280;43484;43.608;1.458;2023-12-14T07:42:43;100081.81;;;7.05;100.00
49723;BME280;43484;43.608;1.458;2023-12-14T07:45:10;100088.00;;;7.10;100.00
49723;BME280;43484;43.608;1.458;2023-12-14T07:47:37;100097.81;;;7.20;100.00
49723;BME280;43484;43.608;1.458;2023-12-14T07:50:04;100105.22;;;7.15;100.00
49723;BME280;43484;43.608;1.458;2023-12-14T07:52:31;100125.41;;;7.11;100.00
49723;BME280;43484;43.608;1.458;2023-12-14T07:54:58;100127.28;;;7.15;100.00
49723;BME280;43484;43.608;1.458;2023-12-14T07:57:25;100134.19;;;7.17;100.00
49723;BME280;43484;43.608;1.458;2023-12-14T07:59:51;100152.59;;;7.12;100.00
49723;BME280;43484;43.608;1.458;2023-12-14T08:02:18;100151.53;;;7.24;100.00
49723;BME280;43484;43.608;1.458;2023-12-14T08:04:44;100175.75;;;7.16;100.00
49723;BME280;43484;43.608;1.458;2023-12-14T08:07:11;100197.06;;;7.18;100.00
49723;BME280;43484;43.608;1.458;2023-12-14T08:09:38;100190.59;;;7.07;100.00
49723;BME280;43484;43.608;1.458;2023-12-14T08:12:04;100199.34;;;7.12;100.00
49723;BME280;43484;43.608;1.458;2023-12-14T08:14:34;100200.56;;;7.20;100.00
49723;BME280;43484;43.608;1.458;2023-12-14T08:17:01;100191.69;;;7.12;100.00
49723;BME280;43484;43.608;1.458;2023-12-14T08:19:28;100192.44;;;7.27;100.00
49723;BME280;43484;43.608;1.458;2023-12-14T08:21:55;100201.38;;;7.19;100.00
49723;BME280;43484;43.608;1.458;2023-12-14T08:24:22;100213.97;;;7.16;100.00
49723;BME280;43484;43.608;1.458;2023-12-14T08:26:48;100207.47;;;7.05;100.00
49723;BME280;43484;43.608;1.458;2023-12-14T08:29:15;100211.66;;;7.21;100.00
49723;BME280;43484;43.608;1.458;2023-12-14T08:31:42;100224.66;;;7.27;100.00
49723;BME280;43484;43.608;1.458;2023-12-14T08:34:09;100223.06;;;7.29;100.00
49723;BME280;43484;43.608;1.458;2023-12-14T08:36:36;100235.13;;;7.15;100.00
49723;BME280;43484;43.608;1.458;2023-12-14T08:39:02;100239.81;;;7.24;100.00
49723;BME280;43484;43.608;1.458;2023-12-14T08:41:29;100251.91;;;7.45;100.00
49723;BME280;43484;43.608;1.458;2023-12-14T08:43:56;100271.00;;;7.36;100.00
49723;BME280;43484;43.608;1.458;2023-12-14T08:46:23;100283.53;;;7.31;100.00
49723;BME280;43484;43.608;1.458;2023-12-14T08:48:49;100284.78;;;7.23;100.00
49723;BME280;43484;43.608;1.458;2023-12-14T08:51:17;100285.53;;;7.21;100.00
49723;BME280;43484;43.608;1.458;2023-12-14T08:53:44;100289.88;;;7.23;100.00
49723;BME280;43484;43.608;1.458;2023-12-14T08:56:10;100296.69;;;7.23;100.00
49723;BME280;43484;43.608;1.458;2023-12-14T08:58:37;100302.00;;;7.27;100.00
49723;BME280;43484;43.608;1.458;2023-12-14T09:01:04;100306.66;;;7.36;100.00
49723;BME280;43484;43.608;1.458;2023-12-14T09:03:30;100310.72;;;7.32;100.00
49723;BME280;43484;43.608;1.458;2023-12-14T09:05:57;100310.88;;;7.35;100.00
49723;BME280;43484;43.608;1.458;2023-12-14T09:08:25;100319.13;;;7.30;100.00
49723;BME280;43484;43.608;1.458;2023-12-14T09:10:52;100322.66;;;7.33;100.00
49723;BME280;43484;43.608;1.458;2023-12-14T09:13:18;100337.81;;;7.30;100.00
49723;BME280;43484;43.608;1.458;2023-12-14T09:15:45;100347.03;;;7.44;100.00
49723;BME280;43484;43.608;1.458;2023-12-14T09:18:12;100355.09;;;7.53;100.00
49723;BME280;43484;43.608;1.458;2023-12-14T09:20:39;100374.94;;;7.59;100.00
49723;BME280;43484;43.608;1.458;2023-12-14T09:23:07;100375.09;;;7.62;100.00
49723;BME280;43484;43.608;1.458;2023-12-14T09:25:34;100390.56;;;7.65;100.00
49723;BME280;43484;43.608;1.458;2023-12-14T09:28:01;100404.22;;;7.67;100.00
49723;BME280;43484;43.608;1.458;2023-12-14T09:30:27;100414.13;;;7.61;100.00
49723;BME280;43484;43.608;1.458;2023-12-14T09:32:54;100423.84;;;7.68;100.00
49723;BME280;43484;43.608;1.458;2023-12-14T09:35:21;100444.50;;;7.56;100.00
49723;BME280;43484;43.608;1.458;2023-12-14T09:37:48;100458.81;;;7.71;100.00
49723;BME280;43484;43.608;1.458;2023-12-14T09:40:14;100469.59;;;7.65;100.00
49723;BME280;43484;43.608;1.458;2023-12-14T09:42:43;100482.16;;;7.62;100.00
49723;BME280;43484;43.608;1.458;2023-12-14T09:45:09;100486.63;;;7.66;100.00
49723;BME280;43484;43.608;1.458;2023-12-14T09:47:37;100493.03;;;7.58;100.00
49723;BME280;43484;43.608;1.458;2023-12-14T09:50:06;100508.78;;;7.67;100.00
49723;BME280;43484;43.608;1.458;2023-12-14T09:52:32;100514.59;;;7.48;100.00
49723;BME280;43484;43.608;1.458;2023-12-14T09:55:00;100538.34;;;7.31;100.00
49723;BME280;43484;43.608;1.458;2023-12-14T09:57:27;100533.41;;;7.34;100.00
49723;BME280;43484;43.608;1.458;2023-12-14T09:59:54;100537.00;;;7.54;100.00
49723;BME280;43484;43.608;1.458;2023-12-14T10:02:27;100543.63;;;7.67;100.00
49723;BME280;43484;43.608;1.458;2023-12-14T10:04:54;100558.34;;;7.72;100.00
49723;BME280;43484;43.608;1.458;2023-12-14T10:07:21;100564.94;;;7.68;100.00
49723;BME280;43484;43.608;1.458;2023-12-14T10:09:48;100584.66;;;7.55;100.00
49723;BME280;43484;43.608;1.458;2023-12-14T10:12:16;100586.53;;;7.59;100.00
49723;BME280;43484;43.608;1.458;2023-12-14T10:14:43;100582.78;;;7.68;100.00
49723;BME280;43484;43.608;1.458;2023-12-14T10:17:21;100590.38;;;7.67;100.00
49723;BME280;43484;43.608;1.458;2023-12-14T10:19:48;100580.31;;;7.54;100.00
49723;BME280;43484;43.608;1.458;2023-12-14T10:22:17;100587.75;;;7.65;100.00
49723;BME280;43484;43.608;1.458;2023-12-14T10:24:46;100598.50;;;7.76;100.00
49723;BME280;43484;43.608;1.458;2023-12-14T10:27:14;100598.28;;;7.72;100.00
49723;BME280;43484;43.608;1.458;2023-12-14T10:29:42;100597.78;;;7.62;100.00
49723;BME280;43484;43.608;1.458;2023-12-14T10:32:11;100602.81;;;7.61;100.00
49723;BME280;43484;43.608;1.458;2023-12-14T10:34:38;100608.78;;;7.78;100.00
49723;BME280;43484;43.608;1.458;2023-12-14T10:37:07;100622.66;;;7.67;100.00
49723;BME280;43484;43.608;1.458;2023-12-14T10:39:34;100622.75;;;7.68;100.00
49723;BME280;43484;43.608;1.458;2023-12-14T10:42:03;100619.53;;;7.72;100.00
49723;BME280;43484;43.608;1.458;2023-12-14T10:44:45;100627.84;;;7.68;100.00
49723;BME280;43484;43.608;1.458;2023-12-14T10:47:32;100630.69;;;7.74;100.00
49723;BME280;43484;43.608;1.458;2023-12-14T10:50:00;100638.50;;;7.77;100.00
49723;BME280;43484;43.608;1.458;2023-12-14T10:52:29;100645.84;;;7.87;100.00
49723;BME280;43484;43.608;1.458;2023-12-14T10:55:00;100636.47;;;7.86;100.00
49723;BME280;43484;43.608;1.458;2023-12-14T10:57:28;100650.88;;;7.70;100.00
49723;BME280;43484;43.608;1.458;2023-12-14T10:59:59;100660.09;;;7.68;100.00
49723;BME280;43484;43.608;1.458;2023-12-14T11:02:27;100644.97;;;7.71;100.00
49723;BME280;43484;43.608;1.458;2023-12-14T11:04:59;100653.50;;;7.71;100.00
49723;BME280;43484;43.608;1.458;2023-12-14T11:10:14;100674.56;;;7.83;100.00
49723;BME280;43484;43.608;1.458;2023-12-14T11:12:51;100687.38;;;7.85;100.00
49723;BME280;43484;43.608;1.458;2023-12-14T11:15:19;100690.63;;;7.82;100.00
49723;BME280;43484;43.608;1.458;2023-12-14T11:23:12;100721.59;;;8.04;100.00
49723;BME280;43484;43.608;1.458;2023-12-14T11:25:44;100722.34;;;8.02;100.00
49723;BME280;43484;43.608;1.458;2023-12-14T11:28:22;100726.25;;;8.11;100.00
49723;BME280;43484;43.608;1.458;2023-12-14T11:30:52;100748.75;;;8.18;100.00
49723;BME280;43484;43.608;1.458;2023-12-14T11:33:22;100758.97;;;8.18;100.00
49723;BME280;43484;43.608;1.458;2023-12-14T11:35:51;100774.19;;;8.17;100.00
49723;BME280;43484;43.608;1.458;2023-12-14T11:38:19;100760.56;;;8.32;100.00
49723;BME280;43484;43.608;1.458;2023-12-14T11:40:48;100772.78;;;8.38;100.00
49723;BME280;43484;43.608;1.458;2023-12-14T11:43:16;100781.66;;;8.28;100.00
49723;BME280;43484;43.608;1.458;2023-12-14T11:45:43;100779.09;;;8.28;100.00
49723;BME280;43484;43.608;1.458;2023-12-14T11:48:11;100778.88;;;8.40;100.00
49723;BME280;43484;43.608;1.458;2023-12-14T11:50:40;100776.72;;;8.63;100.00
49723;BME280;43484;43.608;1.458;2023-12-14T11:53:09;100790.38;;;8.64;100.00
49723;BME280;43484;43.608;1.458;2023-12-14T11:55:39;100788.69;;;8.48;100.00
49723;BME280;43484;43.608;1.458;2023-12-14T11:58:07;100792.44;;;8.55;100.00
49723;BME280;43484;43.608;1.458;2023-12-14T12:00:34;100800.50;;;8.46;100.00
49723;BME280;43484;43.608;1.458;2023-12-14T12:05:39;100812.44;;;8.47;100.00
49723;BME280;43484;43.608;1.458;2023-12-14T12:08:07;100806.00;;;8.54;100.00
49723;BME280;43484;43.608;1.458;2023-12-14T12:10:34;100821.72;;;8.45;100.00
49723;BME280;43484;43.608;1.458;2023-12-14T12:13:03;100823.47;;;8.46;100.00
49723;BME280;43484;43.608;1.458;2023-12-14T12:15:34;100823.22;;;8.58;100.00
49723;BME280;43484;43.608;1.458;2023-12-14T12:18:09;100843.91;;;8.46;100.00
49723;BME280;43484;43.608;1.458;2023-12-14T12:20:36;100827.16;;;8.83;100.00
49723;BME280;43484;43.608;1.458;2023-12-14T12:23:03;100825.91;;;8.75;100.00
49723;BME280;43484;43.608;1.458;2023-12-14T12:25:30;100836.19;;;8.77;100.00
49723;BME280;43484;43.608;1.458;2023-12-14T12:27:59;100838.06;;;8.81;100.00
49723;BME280;43484;43.608;1.458;2023-12-14T12:30:26;100838.06;;;8.81;100.00
49723;BME280;43484;43.608;1.458;2023-12-14T12:32:52;100844.81;;;8.79;100.00
49723;BME280;43484;43.608;1.458;2023-12-14T12:35:19;100845.81;;;8.82;100.00
49723;BME280;43484;43.608;1.458;2023-12-14T12:37:46;100841.38;;;8.78;100.00
49723;BME280;43484;43.608;1.458;2023-12-14T12:40:13;100848.53;;;8.69;100.00
49723;BME280;43484;43.608;1.458;2023-12-14T12:42:42;100854.75;;;8.74;100.00
49723;BME280;43484;43.608;1.458;2023-12-14T12:45:09;100850.31;;;8.70;100.00
49723;BME280;43484;43.608;1.458;2023-12-14T12:47:37;100855.97;;;8.81;100.00
49723;BME280;43484;43.608;1.458;2023-12-14T12:50:05;100852.38;;;8.77;100.00
49723;BME280;43484;43.608;1.458;2023-12-14T12:52:32;100867.00;;;8.80;100.00
49723;BME280;43484;43.608;1.458;2023-12-14T12:54:59;100856.69;;;8.95;100.00
49723;BME280;43484;43.608;1.458;2023-12-14T12:57:26;100861.41;;;8.87;100.00
49723;BME280;43484;43.608;1.458;2023-12-14T12:59:53;100873.63;;;8.76;100.00
49723;BME280;43484;43.608;1.458;2023-12-14T13:02:19;100876.47;;;8.66;100.00
49723;BME280;43484;43.608;1.458;2023-12-14T13:04:46;100877.69;;;8.73;100.00
49723;BME280;43484;43.608;1.458;2023-12-14T13:07:13;100882.06;;;8.59;100.00